createdAt,value
2018-11-04T00:01:19.832Z,7.95
2018-11-04T00:03:44.916Z,7.90
2018-11-04T00:06:10.013Z,8.05
2018-11-04T00:08:35.105Z,8.01
2018-11-04T00:11:00.192Z,8.12
2018-11-04T00:13:25.487Z,8.20
2018-11-04T00:21:03.002Z,8.42
2018-11-04T00:23:28.095Z,8.48
2018-11-04T00:25:53.244Z,8.58
2018-11-04T00:28:18.386Z,8.75
2018-11-04T00:30:43.466Z,8.62
2018-11-04T00:33:08.560Z,8.75
2018-11-04T00:35:33.654Z,8.87
2018-11-04T00:37:58.795Z,8.83
2018-11-04T00:40:23.899Z,8.86
2018-11-04T00:42:49.001Z,8.91
2018-11-04T00:45:14.197Z,9.00
2018-11-04T00:47:42.107Z,9.07
2018-11-04T00:50:09.881Z,9.14
2018-11-04T00:52:35.119Z,9.11
2018-11-04T00:55:00.236Z,9.18
2018-11-04T00:57:25.319Z,9.13
2018-11-04T00:59:50.440Z,9.24
2018-11-04T01:02:15.568Z,9.26
2018-11-04T01:04:40.647Z,9.24
2018-11-04T01:07:06.059Z,9.19
2018-11-04T01:09:31.139Z,9.19
2018-11-04T01:11:56.307Z,9.13
2018-11-04T01:14:21.360Z,9.30
2018-11-04T01:16:46.431Z,9.27
2018-11-04T01:19:11.531Z,9.28
2018-11-04T01:24:15.948Z,9.33
2018-11-04T01:26:41.092Z,9.30
2018-11-04T01:29:06.581Z,9.36
2018-11-04T01:31:31.665Z,9.44
2018-11-04T01:33:56.768Z,9.45
2018-11-04T01:36:21.897Z,9.47
2018-11-04T01:38:48.772Z,9.44
2018-11-04T01:41:13.848Z,9.47
2018-11-04T01:43:38.979Z,9.51
2018-11-04T01:46:04.134Z,9.54
2018-11-04T01:48:29.252Z,9.51
2018-11-04T01:50:54.340Z,9.52
2018-11-04T01:53:19.468Z,9.58
2018-11-04T01:55:44.559Z,9.60
2018-11-04T01:58:09.608Z,9.59
2018-11-04T02:00:34.695Z,9.66
2018-11-04T02:02:59.809Z,9.65
2018-11-04T02:05:24.936Z,9.64
2018-11-04T02:07:50.019Z,9.64
2018-11-04T02:10:15.591Z,9.76
2018-11-04T02:12:40.726Z,9.70
2018-11-04T02:15:06.202Z,9.70
2018-11-04T02:17:31.281Z,9.68
2018-11-04T02:19:56.388Z,9.77
2018-11-04T02:22:22.428Z,9.68
2018-11-04T02:24:47.513Z,9.79
2018-11-04T02:27:12.688Z,9.73
2018-11-04T02:29:56.796Z,9.75
2018-11-04T02:32:22.237Z,9.81
2018-11-04T02:34:47.383Z,9.75
2018-11-04T02:37:12.459Z,9.83
2018-11-04T02:39:37.589Z,9.84
2018-11-04T02:42:03.052Z,9.80
2018-11-04T02:44:28.145Z,9.79
2018-11-04T02:46:53.360Z,9.74
2018-11-04T02:49:18.351Z,9.62
2018-11-04T02:51:43.567Z,9.50
2018-11-04T02:54:08.610Z,9.55
2018-11-04T02:56:33.699Z,9.54
2018-11-04T02:58:58.802Z,9.49
2018-11-04T03:03:59.975Z,9.44
2018-11-04T03:06:25.082Z,9.40
2018-11-04T03:08:50.154Z,9.35
2018-11-04T03:11:15.274Z,9.34
2018-11-04T03:13:40.372Z,9.39
2018-11-04T03:16:05.553Z,9.43
2018-11-04T03:18:30.620Z,9.40
2018-11-04T03:20:55.698Z,9.36
2018-11-04T03:23:20.808Z,9.32
2018-11-04T03:25:45.903Z,9.26
2018-11-04T03:28:11.666Z,9.29
2018-11-04T03:30:36.763Z,9.38
2018-11-04T03:33:01.828Z,9.31
2018-11-04T03:35:26.930Z,9.37
2018-11-04T03:37:52.022Z,9.37
2018-11-04T03:40:17.154Z,9.34
2018-11-04T03:42:42.633Z,9.39
2018-11-04T03:45:08.001Z,9.43
2018-11-04T03:47:33.083Z,9.45
2018-11-04T03:50:00.402Z,9.55
2018-11-04T03:52:25.528Z,9.49
2018-11-04T03:54:50.633Z,9.57
2018-11-04T03:57:15.721Z,9.47
2018-11-04T03:59:40.848Z,9.41
2018-11-04T04:02:06.204Z,9.59
2018-11-04T04:04:31.306Z,9.60
2018-11-04T04:06:56.382Z,9.59
2018-11-04T04:09:21.485Z,9.68
2018-11-04T04:11:46.613Z,9.69
2018-11-04T04:14:11.674Z,9.67
2018-11-04T04:16:36.759Z,9.69
2018-11-04T04:21:38.094Z,9.71
2018-11-04T04:24:03.146Z,9.75
2018-11-04T04:26:28.224Z,9.74
2018-11-04T04:31:30.024Z,9.71
2018-11-04T04:33:55.126Z,9.76
2018-11-04T04:36:20.223Z,9.79
2018-11-04T04:38:56.968Z,9.90
2018-11-04T04:41:22.059Z,9.86
2018-11-04T04:43:47.136Z,9.79
2018-11-04T04:46:13.068Z,9.91
2018-11-04T04:51:51.695Z,9.93
2018-11-04T05:06:12.711Z,9.95
2018-11-04T05:08:41.191Z,9.98
2018-11-04T05:11:06.237Z,9.99
2018-11-04T05:13:31.354Z,9.97
2018-11-04T05:15:56.441Z,10.02
2018-11-04T05:18:21.525Z,10.03
2018-11-04T05:20:46.629Z,10.07
2018-11-04T05:23:11.706Z,9.98
2018-11-04T05:28:15.667Z,9.99
2018-11-04T05:30:40.788Z,10.04
2018-11-04T05:33:06.118Z,10.02
2018-11-04T05:35:31.204Z,9.98
2018-11-04T05:37:56.258Z,10.05
2018-11-04T05:40:21.356Z,10.03
2018-11-04T05:42:46.433Z,9.98
2018-11-04T05:45:11.555Z,10.02
2018-11-04T05:47:36.663Z,10.02
2018-11-04T05:50:01.777Z,10.02
2018-11-04T05:52:26.863Z,10.01
2018-11-04T05:55:10.890Z,9.96
2018-11-04T05:57:54.973Z,10.04
2018-11-04T06:00:39.032Z,9.99
2018-11-04T06:03:04.114Z,10.10
2018-11-04T06:05:29.196Z,10.05
2018-11-04T06:07:54.290Z,9.98
2018-11-04T06:10:38.347Z,9.99
2018-11-04T06:13:03.416Z,10.05
2018-11-04T06:15:47.557Z,10.09
2018-11-04T06:18:12.574Z,10.14
2018-11-04T06:20:37.645Z,10.08
2018-11-04T06:23:02.750Z,10.06
2018-11-04T06:25:27.813Z,10.10
2018-11-04T06:28:11.866Z,10.08
2018-11-04T06:30:55.921Z,10.15
2018-11-04T06:33:21.045Z,10.11
2018-11-04T06:35:46.124Z,10.14
2018-11-04T06:38:11.205Z,10.24
2018-11-04T06:40:36.285Z,10.18
2018-11-04T06:43:01.371Z,10.19
2018-11-04T06:45:26.462Z,10.21
2018-11-04T06:47:51.536Z,10.27
2018-11-04T06:50:16.725Z,10.18
2018-11-04T06:52:42.327Z,10.05
2018-11-04T06:55:08.643Z,10.29
2018-11-04T06:57:33.716Z,10.27
2018-11-04T06:59:58.851Z,10.28
2018-11-04T07:02:23.929Z,10.38
2018-11-04T07:04:49.022Z,10.35
2018-11-04T07:07:14.124Z,10.40
2018-11-04T07:09:39.214Z,10.36
2018-11-04T07:12:04.283Z,10.34
2018-11-04T07:14:29.379Z,10.44
2018-11-04T07:16:54.524Z,10.49
2018-11-04T07:19:19.592Z,10.38
2018-11-04T07:21:44.726Z,10.43
2018-11-04T07:24:09.869Z,10.38
2018-11-04T07:26:54.042Z,10.50
2018-11-04T07:29:19.138Z,10.44
2018-11-04T07:31:44.206Z,10.53
2018-11-04T07:34:09.372Z,10.48
2018-11-04T07:36:34.540Z,10.43
2018-11-04T07:38:59.768Z,10.62
2018-11-04T07:41:24.893Z,10.60
2018-11-04T07:43:50.266Z,10.73
2018-11-04T07:46:15.473Z,10.66
2018-11-04T07:48:40.612Z,10.68
2018-11-04T07:51:05.765Z,10.77
2018-11-04T07:53:30.896Z,10.85
2018-11-04T07:55:55.956Z,10.72
2018-11-04T07:58:21.099Z,10.82
2018-11-04T08:00:46.205Z,10.78
2018-11-04T08:03:11.408Z,10.67
2018-11-04T08:05:36.493Z,10.82
2018-11-04T08:08:01.567Z,10.84
2018-11-04T08:10:26.668Z,10.89
2018-11-04T08:12:51.786Z,10.92
2018-11-04T08:15:17.036Z,11.00
2018-11-04T08:17:42.157Z,11.06
2018-11-04T08:20:07.862Z,11.14
2018-11-04T08:22:33.078Z,11.13
2018-11-04T08:25:05.736Z,11.19
2018-11-04T08:27:30.908Z,11.14
2018-11-04T08:29:55.980Z,11.22
2018-11-04T08:32:21.101Z,11.19
2018-11-04T08:34:46.238Z,11.28
2018-11-04T08:37:11.329Z,11.27
2018-11-04T08:39:36.548Z,11.29
2018-11-04T08:42:01.655Z,11.37
2018-11-04T08:44:26.782Z,11.34
2018-11-04T08:46:51.901Z,11.40
2018-11-04T08:49:17.020Z,11.38
2018-11-04T08:51:42.195Z,11.45
2018-11-04T08:54:26.457Z,11.37
2018-11-04T08:56:51.635Z,11.41
2018-11-04T08:59:16.728Z,11.45
2018-11-04T09:01:41.834Z,11.47
2018-11-04T09:06:43.678Z,11.61
2018-11-04T09:09:08.848Z,11.35
2018-11-04T09:11:33.935Z,11.50
2018-11-04T09:13:59.043Z,11.52
2018-11-04T09:16:24.123Z,11.38
2018-11-04T09:18:49.205Z,11.63
2018-11-04T09:21:14.385Z,11.63
2018-11-04T09:23:39.592Z,11.75
2018-11-04T09:26:04.626Z,11.69
2018-11-04T09:28:29.751Z,11.69
2018-11-04T09:30:54.865Z,11.73
2018-11-04T09:33:38.993Z,11.89
2018-11-04T09:36:04.226Z,11.86
2018-11-04T09:38:29.278Z,11.84
2018-11-04T09:40:54.423Z,11.91
2018-11-04T09:43:19.550Z,11.86
2018-11-04T09:45:44.654Z,11.98
2018-11-04T09:48:09.794Z,11.81
2018-11-04T09:50:53.979Z,11.86
2018-11-04T09:53:22.487Z,12.02
2018-11-04T09:55:48.285Z,11.93
2018-11-04T09:58:13.515Z,12.00
2018-11-04T10:03:26.918Z,11.99
2018-11-04T10:05:52.033Z,12.10
2018-11-04T10:08:17.210Z,12.09
2018-11-04T10:10:46.209Z,12.04
2018-11-04T10:13:11.825Z,12.04
2018-11-04T10:15:56.698Z,12.13
2018-11-04T10:18:21.840Z,12.06
2018-11-04T10:20:47.596Z,12.26
2018-11-04T10:28:27.914Z,12.30
2018-11-04T10:30:53.214Z,12.26
2018-11-04T10:33:18.449Z,12.30
2018-11-04T10:35:44.716Z,12.25
2018-11-04T10:38:10.819Z,12.27
2018-11-04T10:40:36.430Z,12.05
2018-11-04T10:43:01.669Z,12.19
2018-11-04T10:45:26.880Z,12.21
2018-11-04T10:47:53.914Z,12.31
2018-11-04T10:50:22.015Z,12.34
2018-11-04T10:52:47.191Z,12.33
2018-11-04T10:55:12.470Z,12.26
2018-11-04T10:57:37.630Z,12.32
2018-11-04T11:00:02.854Z,12.32
2018-11-04T11:02:27.972Z,12.26
2018-11-04T11:04:53.082Z,12.46
2018-11-04T11:07:18.269Z,12.47
2018-11-04T11:09:43.337Z,12.39
2018-11-04T11:12:08.545Z,12.36
2018-11-04T11:14:33.831Z,12.46
2018-11-04T11:16:59.016Z,12.44
2018-11-04T11:19:24.263Z,12.39
2018-11-04T11:21:49.357Z,12.46
2018-11-04T11:24:14.602Z,12.37
2018-11-04T11:26:39.784Z,12.52
2018-11-04T11:29:04.950Z,12.56
2018-11-04T11:31:30.096Z,12.53
2018-11-04T11:33:55.346Z,12.52
2018-11-04T11:36:20.600Z,12.61
2018-11-04T11:38:45.796Z,12.55
2018-11-04T11:41:11.132Z,12.51
2018-11-04T11:43:36.338Z,12.66
2018-11-04T11:48:59.893Z,12.64
2018-11-04T11:51:25.022Z,12.68
2018-11-04T11:53:50.270Z,12.68
2018-11-04T11:56:15.439Z,12.67
2018-11-04T11:58:40.522Z,12.67
2018-11-04T12:01:05.763Z,12.70
2018-11-04T12:03:30.861Z,12.74
2018-11-04T12:05:55.981Z,12.63
2018-11-04T12:08:21.137Z,12.61
2018-11-04T12:10:46.238Z,12.60
2018-11-04T12:13:11.434Z,12.70
2018-11-04T12:15:36.565Z,12.66
2018-11-04T12:18:01.714Z,12.60
2018-11-04T12:20:45.803Z,12.64
2018-11-04T12:23:10.982Z,12.72
2018-11-04T12:25:36.232Z,12.64
2018-11-04T12:28:01.378Z,12.71
2018-11-04T12:30:26.508Z,12.72
2018-11-04T12:32:51.767Z,12.62
2018-11-04T12:35:17.304Z,12.73
2018-11-04T12:37:42.930Z,12.76
2018-11-04T12:40:10.415Z,12.77
2018-11-04T12:42:35.569Z,12.74
2018-11-04T12:45:00.715Z,12.66
2018-11-04T12:47:25.949Z,12.70
2018-11-04T12:50:10.153Z,12.75
2018-11-04T12:52:35.260Z,12.79
2018-11-04T12:55:00.422Z,12.87
2018-11-04T12:57:25.628Z,12.80
2018-11-04T12:59:50.758Z,12.73
2018-11-04T13:02:15.903Z,12.86
2018-11-04T13:07:36.324Z,12.86
2018-11-04T13:10:01.486Z,12.92
2018-11-04T13:12:26.541Z,12.90
2018-11-04T13:14:51.731Z,12.87
2018-11-04T13:17:16.953Z,12.91
2018-11-04T13:19:42.151Z,12.85
2018-11-04T13:22:07.301Z,12.84
2018-11-04T13:24:32.537Z,13.00
2018-11-04T13:26:57.866Z,12.92
2018-11-04T13:29:22.862Z,12.86
2018-11-04T13:31:48.077Z,12.95
2018-11-04T13:34:17.146Z,12.95
2018-11-04T13:36:42.338Z,12.96
2018-11-04T13:39:09.101Z,12.99
2018-11-04T13:41:34.211Z,12.94
2018-11-04T13:43:59.392Z,12.88
2018-11-04T13:46:24.544Z,13.02
2018-11-04T13:48:49.653Z,13.02
2018-11-04T13:51:14.842Z,13.12
2018-11-04T13:53:39.998Z,13.08
2018-11-04T13:56:05.127Z,12.94
2018-11-04T13:58:30.309Z,13.00
2018-11-04T14:00:55.577Z,13.00
2018-11-04T14:03:20.719Z,13.00
2018-11-04T14:05:45.920Z,13.04
2018-11-04T14:08:11.283Z,13.05
2018-11-04T14:10:40.641Z,13.04
2018-11-04T14:13:23.297Z,13.15
2018-11-04T14:19:11.388Z,13.11
2018-11-04T14:21:44.205Z,13.12
2018-11-04T14:45:04.427Z,13.15
2018-11-04T14:47:29.986Z,13.14
2018-11-04T14:49:59.298Z,13.09
2018-11-04T14:52:24.607Z,13.08
2018-11-04T14:54:49.824Z,13.16
2018-11-04T14:57:14.998Z,12.99
2018-11-04T14:59:40.180Z,13.15
2018-11-04T15:02:05.406Z,13.07
2018-11-04T15:04:30.647Z,13.16
2018-11-04T15:06:55.840Z,13.09
2018-11-04T15:09:21.382Z,13.16
2018-11-04T15:11:46.962Z,13.14
2018-11-04T15:14:12.780Z,12.99
2018-11-04T15:16:38.008Z,13.14
2018-11-04T15:19:03.280Z,13.04
2018-11-04T15:21:28.422Z,13.10
2018-11-04T15:23:53.672Z,13.05
2018-11-04T15:26:21.399Z,13.10
2018-11-04T15:28:46.709Z,13.13
2018-11-04T15:31:11.953Z,13.15
2018-11-04T15:33:37.254Z,13.13
2018-11-04T15:39:15.644Z,13.12
2018-11-04T15:41:40.787Z,13.21
2018-11-04T15:44:05.912Z,13.09
2018-11-04T15:46:32.244Z,13.09
2018-11-04T15:48:57.548Z,13.17
2018-11-04T15:51:22.669Z,13.22
2018-11-04T15:53:47.884Z,13.21
2018-11-04T15:56:13.004Z,13.20
2018-11-04T15:58:38.133Z,13.16
2018-11-04T16:01:03.364Z,13.16
2018-11-04T16:03:28.572Z,13.23
2018-11-04T16:06:12.680Z,13.17
2018-11-04T16:08:37.834Z,13.21
2018-11-04T16:11:02.983Z,13.14
2018-11-04T16:13:28.173Z,13.20
2018-11-04T16:15:53.348Z,13.19
2018-11-04T16:18:18.672Z,12.87
2018-11-04T16:20:43.785Z,13.21
2018-11-04T16:23:08.925Z,13.09
2018-11-04T16:25:34.236Z,13.15
2018-11-04T16:27:59.349Z,13.08
2018-11-04T16:30:43.397Z,13.20
2018-11-04T16:33:08.620Z,13.12
2018-11-04T16:35:33.816Z,13.18
2018-11-04T16:37:59.117Z,13.18
2018-11-04T16:40:24.179Z,13.25
2018-11-04T16:42:49.331Z,13.24
2018-11-04T16:45:15.925Z,13.27
2018-11-04T16:47:41.095Z,13.10
2018-11-04T16:50:18.153Z,13.21
2018-11-04T16:52:44.238Z,13.17
2018-11-04T16:55:10.388Z,13.23
2018-11-04T16:57:35.518Z,13.17
2018-11-04T17:02:37.274Z,13.30
2018-11-04T17:05:02.927Z,13.30
2018-11-04T17:07:28.019Z,13.19
2018-11-04T17:09:53.219Z,13.17
2018-11-04T17:15:00.682Z,13.23
2018-11-04T17:20:05.588Z,13.33
2018-11-04T17:22:30.862Z,13.31
2018-11-04T17:27:51.580Z,13.38
2018-11-04T17:32:55.754Z,13.29
2018-11-04T17:35:20.960Z,13.31
2018-11-04T17:37:46.588Z,13.30
2018-11-04T17:40:12.653Z,13.30
2018-11-04T17:42:43.806Z,13.19
2018-11-04T17:45:10.767Z,13.28
2018-11-04T17:47:36.045Z,13.33
2018-11-04T17:50:01.317Z,13.31
2018-11-04T17:52:26.538Z,13.25
2018-11-04T17:54:51.703Z,13.26
2018-11-04T17:57:18.632Z,13.33
2018-11-04T17:59:42.569Z,13.27
2018-11-04T18:04:44.797Z,13.29
2018-11-04T18:07:10.774Z,13.28
2018-11-04T18:09:36.013Z,13.32
2018-11-04T18:12:02.047Z,13.30
2018-11-04T18:14:29.063Z,13.26
2018-11-04T18:16:57.618Z,13.24
2018-11-04T18:22:30.919Z,13.34
2018-11-04T18:24:56.053Z,13.40
2018-11-04T18:27:21.302Z,13.30
2018-11-04T18:29:46.461Z,13.35
2018-11-04T18:32:11.649Z,13.34
2018-11-04T18:34:36.795Z,13.37
2018-11-04T18:37:01.968Z,13.38
2018-11-04T18:39:27.117Z,13.27
2018-11-04T18:41:52.265Z,13.34
2018-11-04T18:44:17.529Z,13.37
2018-11-04T18:46:42.658Z,13.35
2018-11-04T18:49:07.881Z,13.35
2018-11-04T18:51:33.084Z,13.33
2018-11-04T18:56:56.127Z,13.31
2018-11-04T18:59:21.476Z,13.37
2018-11-04T19:01:46.491Z,13.37
2018-11-04T19:04:11.601Z,13.32
2018-11-04T19:06:36.761Z,13.36
2018-11-04T19:09:01.896Z,13.33
2018-11-04T19:11:27.087Z,13.29
2018-11-04T19:13:52.328Z,13.34
2018-11-04T19:16:17.501Z,13.37
2018-11-04T19:18:43.326Z,13.38
2018-11-04T19:21:08.399Z,13.36
2018-11-04T19:23:52.557Z,13.40
2018-11-04T19:26:17.704Z,13.42
2018-11-04T19:28:42.899Z,13.30
2018-11-04T19:31:08.173Z,13.40
2018-11-04T19:33:33.223Z,13.38
2018-11-04T19:36:17.346Z,13.40
2018-11-04T19:38:42.472Z,13.35
2018-11-04T19:41:26.594Z,13.41
2018-11-04T19:43:51.856Z,13.51
2018-11-04T19:46:17.021Z,13.43
2018-11-04T19:48:42.358Z,13.37
2018-11-04T19:51:07.465Z,13.40
2018-11-04T19:53:32.619Z,13.48
2018-11-04T19:55:57.712Z,13.48
2018-11-04T19:58:22.887Z,13.37
2018-11-04T20:00:48.028Z,13.49
2018-11-04T20:03:13.146Z,13.39
2018-11-04T20:05:38.277Z,13.37
2018-11-04T20:08:03.405Z,13.49
2018-11-04T20:10:28.623Z,13.50
2018-11-04T20:13:12.388Z,13.47
2018-11-04T20:15:56.490Z,13.47
2018-11-04T20:18:40.288Z,13.56
2018-11-04T20:21:05.467Z,13.44
2018-11-04T20:23:30.578Z,13.50
2018-11-04T20:26:14.400Z,13.45
2018-11-04T20:28:39.580Z,13.47
2018-11-04T20:31:05.926Z,13.48
2018-11-04T20:33:29.853Z,13.59
2018-11-04T20:36:13.978Z,13.57
2018-11-04T20:38:57.887Z,13.51
2018-11-04T20:41:41.677Z,13.51
2018-11-04T20:44:06.893Z,13.55
2018-11-04T20:46:32.104Z,13.57
2018-11-04T20:49:17.894Z,13.57
2018-11-04T20:51:43.110Z,13.58
2018-11-04T20:54:08.331Z,13.60
2018-11-04T20:56:52.195Z,13.57
2018-11-04T20:59:17.323Z,13.55
2018-11-04T21:01:42.473Z,13.59
2018-11-04T21:04:07.917Z,13.54
2018-11-04T21:06:33.062Z,13.55
2018-11-04T21:08:58.196Z,12.75
2018-11-04T21:11:23.393Z,13.60
2018-11-04T21:13:48.568Z,13.57
2018-11-04T21:16:13.873Z,13.61
2018-11-04T21:18:38.843Z,13.55
2018-11-04T21:21:03.982Z,13.56
2018-11-04T21:23:29.171Z,13.53
2018-11-04T21:25:54.327Z,13.52
2018-11-04T21:28:21.253Z,13.58
2018-11-04T21:30:46.358Z,13.53
2018-11-04T21:33:11.471Z,13.42
2018-11-04T21:35:36.607Z,13.47
2018-11-04T21:38:01.923Z,13.51
2018-11-04T21:40:26.874Z,13.50
2018-11-04T21:42:52.235Z,13.45
2018-11-04T21:45:17.189Z,13.41
2018-11-04T21:47:42.625Z,13.42
2018-11-04T21:50:27.022Z,13.51
2018-11-04T21:53:03.905Z,13.53
2018-11-04T21:55:29.230Z,13.60
2018-11-04T21:57:54.168Z,13.53
2018-11-04T22:00:19.320Z,13.48
2018-11-04T22:02:44.554Z,13.55
2018-11-04T22:05:10.306Z,13.51
2018-11-04T22:07:35.472Z,13.50
2018-11-04T22:10:00.623Z,13.53
2018-11-04T22:12:25.740Z,13.54
2018-11-04T22:14:50.875Z,13.51
2018-11-04T22:17:15.976Z,13.54
2018-11-04T22:19:41.185Z,13.49
2018-11-04T22:22:18.111Z,13.57
2018-11-04T22:24:43.294Z,13.50
2018-11-04T22:27:08.384Z,13.35
2018-11-04T22:29:33.444Z,13.55
2018-11-04T22:31:58.561Z,13.46
2018-11-04T22:34:23.637Z,13.56
2018-11-04T22:36:48.761Z,13.60
2018-11-04T22:39:13.874Z,13.50
2018-11-04T22:41:38.976Z,13.64
2018-11-04T22:44:04.068Z,13.59
2018-11-04T22:49:25.063Z,13.56
2018-11-04T22:51:51.050Z,13.60
2018-11-04T22:54:16.233Z,13.53
2018-11-04T22:56:41.430Z,13.57
2018-11-04T22:59:06.844Z,13.57
2018-11-04T23:01:32.110Z,13.55
2018-11-04T23:03:57.425Z,13.56
2018-11-04T23:06:22.425Z,13.53
2018-11-04T23:08:47.655Z,13.59
2018-11-04T23:11:12.805Z,13.54
2018-11-04T23:13:57.241Z,13.56
2018-11-04T23:16:22.656Z,13.55
2018-11-04T23:21:43.199Z,13.58
2018-11-04T23:24:08.552Z,13.58
2018-11-04T23:26:33.653Z,13.52
2018-11-04T23:28:58.786Z,13.56
2018-11-04T23:31:23.903Z,13.55
2018-11-04T23:33:49.049Z,13.61
2018-11-04T23:36:14.193Z,13.58
2018-11-04T23:38:39.293Z,13.56
2018-11-04T23:41:04.405Z,13.65
2018-11-04T23:43:29.555Z,13.63
2018-11-04T23:45:54.721Z,13.63
2018-11-04T23:48:19.815Z,13.66
2018-11-04T23:50:44.917Z,13.62
2018-11-04T23:53:10.077Z,13.60
2018-11-04T23:55:35.207Z,13.62
2018-11-04T23:58:00.334Z,13.62
